Aérodrome :
LOGIN :

S'inscrire | Disclaimer

   EN    FR    IT 

 










Légende :    VFR   VFR Marginal   IFR   IFR Intensif   IFR Très Intensif
Visi : 
Plafond : 
>= 8 km
>= 3000ft
5 à 8 km
1000 à 3000 ft
1500m à 5 km
500 à 1000 ft
800 à 1500m
200 à 500 ft
< 800m
< 200 ft
Symboles :   Orages  Brouillard  Fortes neiges  Fortes précipitations  Vent > 20 kt
SIGMETs :   Divers  Orages  Givrage  Turbulence  Onde Orograph.  Cendres Volcan.







- Altitude de l'aérodrome : 1789 ft
- Code IATA : PRN


BKPR - Pristina

DERNIER METAR :
  • 232130Z 16007KT 9999 SCT050 BKN090 11/03 Q1019 NOSIG

METARs EXPIRÉS :
  • 232100Z 14010KT 9999 SCT050 BKN090 11/03 Q1019 NOSIG
  • 232030Z 13009KT 9999 SCT050 BKN090 12/03 Q1019 NOSIG
  • 232000Z 15012KT 9999 SCT050 BKN080 12/03 Q1019 NOSIG
  • 231930Z 14014KT 9999 BKN070 12/04 Q1018 NOSIG
  • 231900Z 14015KT 9999 BKN080 12/04 Q1018 NOSIG

TAF TAF BKPR
Valide du 23 à 18h jusqu'au 24 à 18h UTC


231730Z 2318/2418 16012KT 9999 FEW040 BKN080
TEMPO 2318/2321 18018G28KT
Pas de NOTAMs connus pour ce terrain.



MET'MAP, la Météo Aéronautique d'un coup d'oeil ! - Copyright ORBIFLY Décembre 2007 - Disclaimer

ORBIFLY MET'MAP TEAM :

Programmation & Développement : Alexandra Zaïnal
Conception & Développement : Baudouin d'Aumeries
Co-Programmation & Développement : Marc-Olivier Méhu
Soutien technique & logistique : Manuel Goepfert

Contact : metmap@orbifly.com




SOURCES & CREDITS :

   NOAA